sensor_id;sensor_type;location;lat;lon;timestamp;P1;durP1;ratioP1;P2;durP2;ratioP2
45136;SDS011;30894;51.740;19.498;2023-07-20T00:02:08;4.03;;;1.35;;
45136;SDS011;30894;51.740;19.498;2023-07-20T00:04:34;4.55;;;1.52;;
45136;SDS011;30894;51.740;19.498;2023-07-20T00:07:00;2.00;;;1.15;;
45136;SDS011;30894;51.740;19.498;2023-07-20T00:09:26;3.80;;;1.30;;
45136;SDS011;30894;51.740;19.498;2023-07-20T00:11:56;2.35;;;1.38;;
45136;SDS011;30894;51.740;19.498;2023-07-20T00:14:23;2.40;;;1.10;;
45136;SDS011;30894;51.740;19.498;2023-07-20T00:16:50;2.17;;;1.25;;
45136;SDS011;30894;51.740;19.498;2023-07-20T00:19:27;2.85;;;1.42;;
45136;SDS011;30894;51.740;19.498;2023-07-20T00:21:54;1.47;;;1.30;;
45136;SDS011;30894;51.740;19.498;2023-07-20T00:24:20;2.25;;;1.33;;
45136;SDS011;30894;51.740;19.498;2023-07-20T00:26:46;2.17;;;1.27;;
45136;SDS011;30894;51.740;19.498;2023-07-20T00:29:12;2.08;;;1.15;;
45136;SDS011;30894;51.740;19.498;2023-07-20T00:31:42;2.17;;;1.25;;
45136;SDS011;30894;51.740;19.498;2023-07-20T00:34:08;5.75;;;1.58;;
45136;SDS011;30894;51.740;19.498;2023-07-20T00:36:35;2.15;;;1.13;;
45136;SDS011;30894;51.740;19.498;2023-07-20T00:39:01;3.40;;;1.33;;
45136;SDS011;30894;51.740;19.498;2023-07-20T00:41:28;2.58;;;1.05;;
45136;SDS011;30894;51.740;19.498;2023-07-20T00:43:55;2.35;;;1.40;;
45136;SDS011;30894;51.740;19.498;2023-07-20T00:46:25;3.47;;;1.42;;
45136;SDS011;30894;51.740;19.498;2023-07-20T00:48:51;3.55;;;1.38;;
45136;SDS011;30894;51.740;19.498;2023-07-20T00:51:19;3.67;;;1.55;;
45136;SDS011;30894;51.740;19.498;2023-07-20T00:53:46;2.67;;;1.30;;
45136;SDS011;30894;51.740;19.498;2023-07-20T00:56:13;3.88;;;1.48;;
45136;SDS011;30894;51.740;19.498;2023-07-20T00:58:40;3.47;;;1.20;;
45136;SDS011;30894;51.740;19.498;2023-07-20T01:01:07;4.82;;;1.45;;
45136;SDS011;30894;51.740;19.498;2023-07-20T01:03:33;4.32;;;1.10;;
45136;SDS011;30894;51.740;19.498;2023-07-20T01:09:01;1.45;;;0.88;;
45136;SDS011;30894;51.740;19.498;2023-07-20T01:11:44;2.03;;;1.15;;
45136;SDS011;30894;51.740;19.498;2023-07-20T01:14:26;3.83;;;1.35;;
45136;SDS011;30894;51.740;19.498;2023-07-20T01:16:53;3.30;;;1.58;;
45136;SDS011;30894;51.740;19.498;2023-07-20T01:19:19;5.30;;;1.58;;
45136;SDS011;30894;51.740;19.498;2023-07-20T01:30:20;5.85;;;1.40;;
45136;SDS011;30894;51.740;19.498;2023-07-20T01:33:09;2.33;;;1.40;;
45136;SDS011;30894;51.740;19.498;2023-07-20T01:35:38;1.90;;;1.40;;
45136;SDS011;30894;51.740;19.498;2023-07-20T01:38:08;4.50;;;1.85;;
45136;SDS011;30894;51.740;19.498;2023-07-20T01:40:37;5.05;;;2.30;;
45136;SDS011;30894;51.740;19.498;2023-07-20T01:43:04;6.50;;;1.88;;
45136;SDS011;30894;51.740;19.498;2023-07-20T01:45:30;5.70;;;2.20;;
45136;SDS011;30894;51.740;19.498;2023-07-20T01:47:56;3.30;;;1.90;;
45136;SDS011;30894;51.740;19.498;2023-07-20T01:50:22;3.40;;;1.95;;
45136;SDS011;30894;51.740;19.498;2023-07-20T01:52:49;5.63;;;1.88;;
45136;SDS011;30894;51.740;19.498;2023-07-20T01:55:15;3.35;;;1.48;;
45136;SDS011;30894;51.740;19.498;2023-07-20T01:57:42;2.58;;;1.42;;
45136;SDS011;30894;51.740;19.498;2023-07-20T02:00:08;4.40;;;1.65;;
45136;SDS011;30894;51.740;19.498;2023-07-20T02:02:35;2.33;;;1.48;;
45136;SDS011;30894;51.740;19.498;2023-07-20T02:05:08;1.88;;;1.05;;
45136;SDS011;30894;51.740;19.498;2023-07-20T02:07:34;2.20;;;1.40;;
45136;SDS011;30894;51.740;19.498;2023-07-20T02:10:00;3.40;;;1.30;;
45136;SDS011;30894;51.740;19.498;2023-07-20T02:12:27;4.13;;;1.20;;
45136;SDS011;30894;51.740;19.498;2023-07-20T02:14:53;4.22;;;1.23;;
45136;SDS011;30894;51.740;19.498;2023-07-20T02:17:21;1.52;;;1.08;;
45136;SDS011;30894;51.740;19.498;2023-07-20T02:19:50;2.30;;;1.20;;
45136;SDS011;30894;51.740;19.498;2023-07-20T02:22:20;1.33;;;1.23;;
45136;SDS011;30894;51.740;19.498;2023-07-20T02:24:47;3.00;;;1.17;;
45136;SDS011;30894;51.740;19.498;2023-07-20T02:27:13;1.17;;;1.02;;
45136;SDS011;30894;51.740;19.498;2023-07-20T02:29:40;1.55;;;1.25;;
45136;SDS011;30894;51.740;19.498;2023-07-20T02:32:08;2.20;;;1.58;;
45136;SDS011;30894;51.740;19.498;2023-07-20T02:34:36;1.58;;;1.13;;
45136;SDS011;30894;51.740;19.498;2023-07-20T02:37:02;1.38;;;1.10;;
45136;SDS011;30894;51.740;19.498;2023-07-20T02:39:29;5.15;;;1.02;;
45136;SDS011;30894;51.740;19.498;2023-07-20T02:41:56;2.63;;;1.25;;
45136;SDS011;30894;51.740;19.498;2023-07-20T02:44:22;1.23;;;1.08;;
45136;SDS011;30894;51.740;19.498;2023-07-20T02:46:49;3.22;;;1.20;;
45136;SDS011;30894;51.740;19.498;2023-07-20T02:49:16;2.10;;;1.42;;
45136;SDS011;30894;51.740;19.498;2023-07-20T02:51:42;2.42;;;1.45;;
45136;SDS011;30894;51.740;19.498;2023-07-20T02:54:11;4.53;;;1.33;;
45136;SDS011;30894;51.740;19.498;2023-07-20T02:56:38;1.45;;;1.20;;
45136;SDS011;30894;51.740;19.498;2023-07-20T02:59:05;3.92;;;1.70;;
45136;SDS011;30894;51.740;19.498;2023-07-20T03:01:31;2.55;;;1.50;;
45136;SDS011;30894;51.740;19.498;2023-07-20T03:03:57;2.50;;;1.10;;
45136;SDS011;30894;51.740;19.498;2023-07-20T03:06:32;2.05;;;1.00;;
45136;SDS011;30894;51.740;19.498;2023-07-20T03:09:01;2.88;;;1.40;;
45136;SDS011;30894;51.740;19.498;2023-07-20T03:11:30;2.45;;;1.35;;
45136;SDS011;30894;51.740;19.498;2023-07-20T03:14:01;1.42;;;1.33;;
45136;SDS011;30894;51.740;19.498;2023-07-20T03:16:29;6.20;;;1.23;;
45136;SDS011;30894;51.740;19.498;2023-07-20T03:18:58;2.30;;;1.20;;
45136;SDS011;30894;51.740;19.498;2023-07-20T03:21:26;1.60;;;0.90;;
45136;SDS011;30894;51.740;19.498;2023-07-20T03:23:52;1.17;;;1.00;;
45136;SDS011;30894;51.740;19.498;2023-07-20T03:26:21;3.45;;;1.45;;
45136;SDS011;30894;51.740;19.498;2023-07-20T03:28:48;2.80;;;1.30;;
45136;SDS011;30894;51.740;19.498;2023-07-20T03:31:15;1.65;;;1.05;;
45136;SDS011;30894;51.740;19.498;2023-07-20T03:33:41;4.15;;;1.60;;
45136;SDS011;30894;51.740;19.498;2023-07-20T03:36:08;1.45;;;0.82;;
45136;SDS011;30894;51.740;19.498;2023-07-20T03:38:44;1.13;;;1.00;;
45136;SDS011;30894;51.740;19.498;2023-07-20T03:41:11;4.95;;;1.40;;
45136;SDS011;30894;51.740;19.498;2023-07-20T03:43:41;1.63;;;1.10;;
45136;SDS011;30894;51.740;19.498;2023-07-20T03:46:09;2.42;;;1.20;;
45136;SDS011;30894;51.740;19.498;2023-07-20T03:48:35;3.33;;;1.45;;
45136;SDS011;30894;51.740;19.498;2023-07-20T03:51:01;2.15;;;0.90;;
45136;SDS011;30894;51.740;19.498;2023-07-20T03:53:29;1.55;;;1.30;;
45136;SDS011;30894;51.740;19.498;2023-07-20T03:55:55;3.05;;;1.10;;
45136;SDS011;30894;51.740;19.498;2023-07-20T03:58:21;1.77;;;1.20;;
45136;SDS011;30894;51.740;19.498;2023-07-20T04:00:49;1.55;;;1.20;;
45136;SDS011;30894;51.740;19.498;2023-07-20T04:03:19;2.35;;;1.30;;
45136;SDS011;30894;51.740;19.498;2023-07-20T04:05:48;1.40;;;1.17;;
45136;SDS011;30894;51.740;19.498;2023-07-20T04:08:14;3.22;;;1.25;;
45136;SDS011;30894;51.740;19.498;2023-07-20T04:10:44;1.58;;;1.17;;
45136;SDS011;30894;51.740;19.498;2023-07-20T04:13:11;2.20;;;1.50;;
45136;SDS011;30894;51.740;19.498;2023-07-20T04:15:38;5.05;;;1.67;;
45136;SDS011;30894;51.740;19.498;2023-07-20T04:18:04;2.28;;;1.30;;
45136;SDS011;30894;51.740;19.498;2023-07-20T04:20:31;4.20;;;1.65;;
45136;SDS011;30894;51.740;19.498;2023-07-20T04:22:57;2.03;;;1.35;;
45136;SDS011;30894;51.740;19.498;2023-07-20T04:25:24;1.38;;;1.23;;
45136;SDS011;30894;51.740;19.498;2023-07-20T04:27:50;1.63;;;1.42;;
45136;SDS011;30894;51.740;19.498;2023-07-20T04:30:21;1.75;;;1.25;;
45136;SDS011;30894;51.740;19.498;2023-07-20T04:32:48;3.10;;;1.40;;
45136;SDS011;30894;51.740;19.498;2023-07-20T04:35:17;2.10;;;1.90;;
45136;SDS011;30894;51.740;19.498;2023-07-20T04:38:14;4.25;;;1.67;;
45136;SDS011;30894;51.740;19.498;2023-07-20T04:40:46;1.55;;;1.23;;
45136;SDS011;30894;51.740;19.498;2023-07-20T04:43:14;1.60;;;1.50;;
45136;SDS011;30894;51.740;19.498;2023-07-20T04:45:44;1.13;;;1.00;;
45136;SDS011;30894;51.740;19.498;2023-07-20T04:48:12;2.78;;;1.33;;
45136;SDS011;30894;51.740;19.498;2023-07-20T04:50:41;2.65;;;1.27;;
45136;SDS011;30894;51.740;19.498;2023-07-20T04:53:12;2.90;;;1.42;;
45136;SDS011;30894;51.740;19.498;2023-07-20T04:55:39;6.05;;;1.60;;
45136;SDS011;30894;51.740;19.498;2023-07-20T04:58:12;2.88;;;1.20;;
45136;SDS011;30894;51.740;19.498;2023-07-20T05:00:39;4.00;;;1.77;;
45136;SDS011;30894;51.740;19.498;2023-07-20T05:03:05;4.22;;;1.50;;
45136;SDS011;30894;51.740;19.498;2023-07-20T05:05:31;4.60;;;1.95;;
45136;SDS011;30894;51.740;19.498;2023-07-20T05:07:59;4.72;;;1.75;;
45136;SDS011;30894;51.740;19.498;2023-07-20T05:10:26;2.55;;;1.40;;
45136;SDS011;30894;51.740;19.498;2023-07-20T05:12:52;4.05;;;1.77;;
45136;SDS011;30894;51.740;19.498;2023-07-20T05:15:19;1.98;;;1.45;;
45136;SDS011;30894;51.740;19.498;2023-07-20T05:17:45;3.70;;;1.50;;
45136;SDS011;30894;51.740;19.498;2023-07-20T05:20:14;2.13;;;1.63;;
45136;SDS011;30894;51.740;19.498;2023-07-20T05:22:40;1.20;;;1.10;;
45136;SDS011;30894;51.740;19.498;2023-07-20T05:25:07;3.25;;;1.73;;
45136;SDS011;30894;51.740;19.498;2023-07-20T05:27:38;1.17;;;1.08;;
45136;SDS011;30894;51.740;19.498;2023-07-20T05:30:05;4.20;;;1.50;;
45136;SDS011;30894;51.740;19.498;2023-07-20T05:32:35;2.80;;;1.50;;
45136;SDS011;30894;51.740;19.498;2023-07-20T05:35:01;2.45;;;1.65;;
45136;SDS011;30894;51.740;19.498;2023-07-20T05:37:28;1.67;;;1.45;;
45136;SDS011;30894;51.740;19.498;2023-07-20T05:39:54;2.08;;;1.67;;
45136;SDS011;30894;51.740;19.498;2023-07-20T05:42:21;3.90;;;1.77;;
45136;SDS011;30894;51.740;19.498;2023-07-20T05:44:47;3.92;;;2.10;;
45136;SDS011;30894;51.740;19.498;2023-07-20T05:47:15;2.95;;;1.80;;
45136;SDS011;30894;51.740;19.498;2023-07-20T05:49:41;5.18;;;2.40;;
45136;SDS011;30894;51.740;19.498;2023-07-20T05:52:07;5.00;;;2.05;;
45136;SDS011;30894;51.740;19.498;2023-07-20T05:54:34;2.65;;;1.88;;
45136;SDS011;30894;51.740;19.498;2023-07-20T05:57:01;3.28;;;1.83;;
45136;SDS011;30894;51.740;19.498;2023-07-20T05:59:28;2.53;;;1.63;;
45136;SDS011;30894;51.740;19.498;2023-07-20T06:02:01;7.40;;;2.88;;
45136;SDS011;30894;51.740;19.498;2023-07-20T06:05:32;4.38;;;2.40;;
45136;SDS011;30894;51.740;19.498;2023-07-20T06:07:59;3.95;;;2.38;;
45136;SDS011;30894;51.740;19.498;2023-07-20T06:10:26;3.78;;;1.80;;
45136;SDS011;30894;51.740;19.498;2023-07-20T06:12:54;2.33;;;1.98;;
45136;SDS011;30894;51.740;19.498;2023-07-20T06:15:54;3.53;;;2.05;;
45136;SDS011;30894;51.740;19.498;2023-07-20T06:18:16;9.70;;;2.45;;
45136;SDS011;30894;51.740;19.498;2023-07-20T06:20:42;4.97;;;2.38;;
45136;SDS011;30894;51.740;19.498;2023-07-20T06:23:15;5.70;;;2.42;;
45136;SDS011;30894;51.740;19.498;2023-07-20T06:25:41;3.92;;;2.55;;
45136;SDS011;30894;51.740;19.498;2023-07-20T06:28:10;5.85;;;2.17;;
45136;SDS011;30894;51.740;19.498;2023-07-20T06:30:38;7.57;;;2.58;;
45136;SDS011;30894;51.740;19.498;2023-07-20T06:33:05;3.70;;;2.45;;
45136;SDS011;30894;51.740;19.498;2023-07-20T06:35:33;8.02;;;2.92;;
45136;SDS011;30894;51.740;19.498;2023-07-20T06:38:02;4.22;;;2.83;;
45136;SDS011;30894;51.740;19.498;2023-07-20T06:40:31;4.72;;;2.60;;
45136;SDS011;30894;51.740;19.498;2023-07-20T06:42:57;5.82;;;3.03;;
45136;SDS011;30894;51.740;19.498;2023-07-20T06:45:23;4.65;;;2.97;;
45136;SDS011;30894;51.740;19.498;2023-07-20T06:47:49;4.07;;;2.55;;
45136;SDS011;30894;51.740;19.498;2023-07-20T06:50:15;6.05;;;3.35;;
45136;SDS011;30894;51.740;19.498;2023-07-20T06:52:42;7.28;;;3.22;;
45136;SDS011;30894;51.740;19.498;2023-07-20T06:55:08;7.85;;;3.13;;
45136;SDS011;30894;51.740;19.498;2023-07-20T06:57:34;6.78;;;2.83;;
45136;SDS011;30894;51.740;19.498;2023-07-20T07:00:03;6.68;;;3.22;;
45136;SDS011;30894;51.740;19.498;2023-07-20T07:02:30;6.43;;;3.47;;
45136;SDS011;30894;51.740;19.498;2023-07-20T07:04:56;4.43;;;2.83;;
45136;SDS011;30894;51.740;19.498;2023-07-20T07:07:22;5.25;;;3.15;;
45136;SDS011;30894;51.740;19.498;2023-07-20T07:09:48;6.03;;;3.17;;
45136;SDS011;30894;51.740;19.498;2023-07-20T07:12:18;10.32;;;3.88;;
45136;SDS011;30894;51.740;19.498;2023-07-20T07:14:43;9.43;;;3.22;;
45136;SDS011;30894;51.740;19.498;2023-07-20T07:17:10;7.55;;;3.40;;
45136;SDS011;30894;51.740;19.498;2023-07-20T07:19:36;6.20;;;3.63;;
45136;SDS011;30894;51.740;19.498;2023-07-20T07:22:04;9.93;;;4.10;;
45136;SDS011;30894;51.740;19.498;2023-07-20T07:24:30;4.57;;;3.42;;
45136;SDS011;30894;51.740;19.498;2023-07-20T07:27:00;5.47;;;3.65;;
45136;SDS011;30894;51.740;19.498;2023-07-20T07:29:27;11.70;;;3.60;;
45136;SDS011;30894;51.740;19.498;2023-07-20T07:31:53;7.38;;;3.75;;
45136;SDS011;30894;51.740;19.498;2023-07-20T07:34:20;7.22;;;4.28;;
45136;SDS011;30894;51.740;19.498;2023-07-20T07:36:46;9.80;;;4.32;;
45136;SDS011;30894;51.740;19.498;2023-07-20T07:39:12;6.80;;;4.57;;
45136;SDS011;30894;51.740;19.498;2023-07-20T07:41:39;8.82;;;5.15;;
45136;SDS011;30894;51.740;19.498;2023-07-20T07:44:05;7.30;;;4.38;;
45136;SDS011;30894;51.740;19.498;2023-07-20T07:46:31;9.25;;;4.53;;
45136;SDS011;30894;51.740;19.498;2023-07-20T07:48:57;6.95;;;3.85;;
45136;SDS011;30894;51.740;19.498;2023-07-20T07:51:24;5.90;;;4.00;;
45136;SDS011;30894;51.740;19.498;2023-07-20T07:53:50;9.57;;;4.53;;
45136;SDS011;30894;51.740;19.498;2023-07-20T07:56:16;9.07;;;5.18;;
45136;SDS011;30894;51.740;19.498;2023-07-20T07:58:43;6.88;;;5.00;;
45136;SDS011;30894;51.740;19.498;2023-07-20T08:01:09;9.15;;;5.00;;
45136;SDS011;30894;51.740;19.498;2023-07-20T08:03:35;7.30;;;4.15;;
45136;SDS011;30894;51.740;19.498;2023-07-20T08:06:03;5.38;;;3.90;;
45136;SDS011;30894;51.740;19.498;2023-07-20T08:08:31;5.78;;;4.05;;
45136;SDS011;30894;51.740;19.498;2023-07-20T08:10:58;6.68;;;4.75;;
45136;SDS011;30894;51.740;19.498;2023-07-20T08:13:25;5.93;;;4.10;;
45136;SDS011;30894;51.740;19.498;2023-07-20T08:15:52;5.32;;;4.10;;
45136;SDS011;30894;51.740;19.498;2023-07-20T08:18:19;6.22;;;3.88;;
45136;SDS011;30894;51.740;19.498;2023-07-20T08:20:48;3.50;;;2.90;;
45136;SDS011;30894;51.740;19.498;2023-07-20T08:23:14;4.85;;;2.67;;
45136;SDS011;30894;51.740;19.498;2023-07-20T08:25:41;4.05;;;2.40;;
45136;SDS011;30894;51.740;19.498;2023-07-20T08:28:13;5.50;;;3.08;;
45136;SDS011;30894;51.740;19.498;2023-07-20T08:30:47;5.07;;;2.70;;
45136;SDS011;30894;51.740;19.498;2023-07-20T08:33:15;4.45;;;2.63;;
45136;SDS011;30894;51.740;19.498;2023-07-20T08:35:46;2.65;;;1.60;;
45136;SDS011;30894;51.740;19.498;2023-07-20T08:38:12;2.63;;;1.60;;
45136;SDS011;30894;51.740;19.498;2023-07-20T08:40:39;3.80;;;2.22;;
45136;SDS011;30894;51.740;19.498;2023-07-20T08:43:08;3.33;;;2.13;;
45136;SDS011;30894;51.740;19.498;2023-07-20T08:45:39;2.80;;;2.00;;
45136;SDS011;30894;51.740;19.498;2023-07-20T08:48:06;2.75;;;1.90;;
45136;SDS011;30894;51.740;19.498;2023-07-20T08:50:33;2.55;;;1.60;;
45136;SDS011;30894;51.740;19.498;2023-07-20T08:53:00;2.63;;;1.75;;
45136;SDS011;30894;51.740;19.498;2023-07-20T08:55:28;3.63;;;1.52;;
45136;SDS011;30894;51.740;19.498;2023-07-20T08:57:55;1.73;;;1.42;;
45136;SDS011;30894;51.740;19.498;2023-07-20T09:00:24;3.75;;;1.50;;
45136;SDS011;30894;51.740;19.498;2023-07-20T09:02:53;2.25;;;1.70;;
45136;SDS011;30894;51.740;19.498;2023-07-20T09:05:20;2.90;;;1.40;;
45136;SDS011;30894;51.740;19.498;2023-07-20T09:07:48;1.52;;;1.27;;
45136;SDS011;30894;51.740;19.498;2023-07-20T09:10:14;3.03;;;1.40;;
45136;SDS011;30894;51.740;19.498;2023-07-20T09:12:42;2.65;;;1.50;;
45136;SDS011;30894;51.740;19.498;2023-07-20T09:15:10;1.50;;;1.30;;
45136;SDS011;30894;51.740;19.498;2023-07-20T09:17:37;2.58;;;1.30;;
45136;SDS011;30894;51.740;19.498;2023-07-20T09:20:04;3.20;;;1.13;;
45136;SDS011;30894;51.740;19.498;2023-07-20T09:22:41;1.85;;;1.30;;
45136;SDS011;30894;51.740;19.498;2023-07-20T09:25:15;3.10;;;1.63;;
45136;SDS011;30894;51.740;19.498;2023-07-20T09:27:45;2.75;;;1.60;;
45136;SDS011;30894;51.740;19.498;2023-07-20T09:30:14;3.00;;;1.35;;
45136;SDS011;30894;51.740;19.498;2023-07-20T09:32:48;2.60;;;1.30;;
45136;SDS011;30894;51.740;19.498;2023-07-20T09:35:17;3.72;;;1.42;;
45136;SDS011;30894;51.740;19.498;2023-07-20T09:37:49;2.38;;;1.10;;
45136;SDS011;30894;51.740;19.498;2023-07-20T09:40:28;1.80;;;1.35;;
45136;SDS011;30894;51.740;19.498;2023-07-20T09:42:54;1.63;;;1.13;;
45136;SDS011;30894;51.740;19.498;2023-07-20T09:45:30;2.20;;;1.00;;
45136;SDS011;30894;51.740;19.498;2023-07-20T09:48:05;1.65;;;1.33;;
45136;SDS011;30894;51.740;19.498;2023-07-20T09:50:33;3.40;;;1.25;;
45136;SDS011;30894;51.740;19.498;2023-07-20T09:53:00;1.25;;;1.10;;
45136;SDS011;30894;51.740;19.498;2023-07-20T09:55:30;1.30;;;1.05;;
45136;SDS011;30894;51.740;19.498;2023-07-20T09:57:56;4.55;;;1.33;;
45136;SDS011;30894;51.740;19.498;2023-07-20T10:00:23;2.55;;;1.40;;
45136;SDS011;30894;51.740;19.498;2023-07-20T10:02:50;1.40;;;1.08;;
45136;SDS011;30894;51.740;19.498;2023-07-20T10:05:17;2.13;;;1.10;;
45136;SDS011;30894;51.740;19.498;2023-07-20T10:07:46;1.65;;;1.33;;
45136;SDS011;30894;51.740;19.498;2023-07-20T10:10:15;1.55;;;1.00;;
45136;SDS011;30894;51.740;19.498;2023-07-20T10:12:44;1.83;;;1.20;;
45136;SDS011;30894;51.740;19.498;2023-07-20T10:15:22;2.13;;;1.15;;
45136;SDS011;30894;51.740;19.498;2023-07-20T10:20:39;3.85;;;1.23;;
45136;SDS011;30894;51.740;19.498;2023-07-20T10:23:09;1.90;;;1.10;;
45136;SDS011;30894;51.740;19.498;2023-07-20T10:25:36;1.90;;;1.02;;
45136;SDS011;30894;51.740;19.498;2023-07-20T10:28:06;1.90;;;1.15;;
45136;SDS011;30894;51.740;19.498;2023-07-20T10:30:34;1.13;;;1.02;;
45136;SDS011;30894;51.740;19.498;2023-07-20T10:33:01;2.22;;;1.08;;
45136;SDS011;30894;51.740;19.498;2023-07-20T10:35:29;1.45;;;1.20;;
45136;SDS011;30894;51.740;19.498;2023-07-20T10:38:00;1.70;;;1.17;;
45136;SDS011;30894;51.740;19.498;2023-07-20T10:43:04;2.55;;;1.45;;
45136;SDS011;30894;51.740;19.498;2023-07-20T10:45:33;2.42;;;1.20;;
45136;SDS011;30894;51.740;19.498;2023-07-20T10:48:14;1.67;;;1.10;;
45136;SDS011;30894;51.740;19.498;2023-07-20T10:50:45;1.30;;;0.90;;
45136;SDS011;30894;51.740;19.498;2023-07-20T10:53:31;0.82;;;0.80;;
45136;SDS011;30894;51.740;19.498;2023-07-20T10:56:06;0.82;;;0.82;;
45136;SDS011;30894;51.740;19.498;2023-07-20T10:58:41;0.50;;;0.50;;
45136;SDS011;30894;51.740;19.498;2023-07-20T11:01:07;1.58;;;0.90;;
45136;SDS011;30894;51.740;19.498;2023-07-20T11:03:36;1.90;;;0.75;;
45136;SDS011;30894;51.740;19.498;2023-07-20T11:11:38;1.10;;;1.00;;
45136;SDS011;30894;51.740;19.498;2023-07-20T11:14:05;3.83;;;1.15;;
45136;SDS011;30894;51.740;19.498;2023-07-20T11:16:47;1.58;;;1.08;;
45136;SDS011;30894;51.740;19.498;2023-07-20T11:19:17;3.17;;;1.33;;
45136;SDS011;30894;51.740;19.498;2023-07-20T11:21:53;1.20;;;1.10;;
45136;SDS011;30894;51.740;19.498;2023-07-20T11:24:21;1.58;;;1.23;;
45136;SDS011;30894;51.740;19.498;2023-07-20T11:29:19;5.93;;;1.70;;
45136;SDS011;30894;51.740;19.498;2023-07-20T11:31:49;2.53;;;1.33;;
45136;SDS011;30894;51.740;19.498;2023-07-20T11:34:19;1.77;;;1.00;;
45136;SDS011;30894;51.740;19.498;2023-07-20T11:36:50;0.10;;;0.10;;
45136;SDS011;30894;51.740;19.498;2023-07-20T11:39:18;0.00;;;0.00;;
45136;SDS011;30894;51.740;19.498;2023-07-20T11:41:51;0.05;;;0.05;;
45136;SDS011;30894;51.740;19.498;2023-07-20T11:44:19;0.10;;;0.10;;
45136;SDS011;30894;51.740;19.498;2023-07-20T11:49:30;0.05;;;0.05;;
45136;SDS011;30894;51.740;19.498;2023-07-20T11:52:14;0.10;;;0.10;;
45136;SDS011;30894;51.740;19.498;2023-07-20T11:54:41;0.10;;;0.10;;
45136;SDS011;30894;51.740;19.498;2023-07-20T11:57:18;0.10;;;0.10;;
45136;SDS011;30894;51.740;19.498;2023-07-20T11:59:54;0.10;;;0.10;;
45136;SDS011;30894;51.740;19.498;2023-07-20T12:02:37;0.10;;;0.10;;
45136;SDS011;30894;51.740;19.498;2023-07-20T12:05:04;0.10;;;0.10;;
45136;SDS011;30894;51.740;19.498;2023-07-20T12:07:34;0.00;;;0.00;;
45136;SDS011;30894;51.740;19.498;2023-07-20T12:10:09;0.00;;;0.00;;
45136;SDS011;30894;51.740;19.498;2023-07-20T12:12:40;0.00;;;0.00;;
45136;SDS011;30894;51.740;19.498;2023-07-20T12:18:06;0.00;;;0.00;;
45136;SDS011;30894;51.740;19.498;2023-07-20T12:20:34;0.00;;;0.00;;
45136;SDS011;30894;51.740;19.498;2023-07-20T12:23:04;0.10;;;0.10;;
45136;SDS011;30894;51.740;19.498;2023-07-20T12:25:44;0.00;;;0.00;;
45136;SDS011;30894;51.740;19.498;2023-07-20T12:28:13;0.00;;;0.00;;
45136;SDS011;30894;51.740;19.498;2023-07-20T12:30:44;0.08;;;0.08;;
45136;SDS011;30894;51.740;19.498;2023-07-20T12:33:12;0.00;;;0.00;;
45136;SDS011;30894;51.740;19.498;2023-07-20T12:35:41;0.10;;;0.10;;
45136;SDS011;30894;51.740;19.498;2023-07-20T12:38:09;0.00;;;0.00;;
45136;SDS011;30894;51.740;19.498;2023-07-20T12:40:35;0.00;;;0.00;;
45136;SDS011;30894;51.740;19.498;2023-07-20T12:43:02;0.00;;;0.00;;
45136;SDS011;30894;51.740;19.498;2023-07-20T12:45:35;0.00;;;0.00;;
45136;SDS011;30894;51.740;19.498;2023-07-20T12:48:02;0.00;;;0.00;;
45136;SDS011;30894;51.740;19.498;2023-07-20T12:50:28;0.00;;;0.00;;
45136;SDS011;30894;51.740;19.498;2023-07-20T12:52:58;0.00;;;0.00;;
45136;SDS011;30894;51.740;19.498;2023-07-20T12:55:24;0.00;;;0.00;;
45136;SDS011;30894;51.740;19.498;2023-07-20T12:57:51;0.00;;;0.00;;
45136;SDS011;30894;51.740;19.498;2023-07-20T13:00:20;0.28;;;0.28;;
45136;SDS011;30894;51.740;19.498;2023-07-20T13:02:50;0.10;;;0.10;;
45136;SDS011;30894;51.740;19.498;2023-07-20T13:05:17;0.10;;;0.10;;
45136;SDS011;30894;51.740;19.498;2023-07-20T13:07:44;1.55;;;0.50;;
45136;SDS011;30894;51.740;19.498;2023-07-20T13:10:11;0.20;;;0.20;;
45136;SDS011;30894;51.740;19.498;2023-07-20T13:12:38;0.13;;;0.10;;
45136;SDS011;30894;51.740;19.498;2023-07-20T13:15:05;0.10;;;0.10;;
45136;SDS011;30894;51.740;19.498;2023-07-20T13:17:33;0.00;;;0.00;;
45136;SDS011;30894;51.740;19.498;2023-07-20T13:20:07;0.10;;;0.10;;
45136;SDS011;30894;51.740;19.498;2023-07-20T13:22:36;0.00;;;0.00;;
45136;SDS011;30894;51.740;19.498;2023-07-20T13:25:08;0.10;;;0.10;;
45136;SDS011;30894;51.740;19.498;2023-07-20T13:27:37;0.10;;;0.10;;
45136;SDS011;30894;51.740;19.498;2023-07-20T13:30:03;0.00;;;0.00;;
45136;SDS011;30894;51.740;19.498;2023-07-20T13:32:33;0.00;;;0.00;;
45136;SDS011;30894;51.740;19.498;2023-07-20T13:34:59;0.10;;;0.10;;
45136;SDS011;30894;51.740;19.498;2023-07-20T13:37:26;0.10;;;0.10;;
45136;SDS011;30894;51.740;19.498;2023-07-20T13:39:52;0.15;;;0.10;;
45136;SDS011;30894;51.740;19.498;2023-07-20T13:42:18;0.00;;;0.00;;
45136;SDS011;30894;51.740;19.498;2023-07-20T13:44:46;0.00;;;0.00;;
45136;SDS011;30894;51.740;19.498;2023-07-20T13:47:14;0.00;;;0.00;;
45136;SDS011;30894;51.740;19.498;2023-07-20T13:49:40;2.10;;;0.47;;
45136;SDS011;30894;51.740;19.498;2023-07-20T13:52:07;0.60;;;0.55;;
45136;SDS011;30894;51.740;19.498;2023-07-20T13:54:33;0.75;;;0.75;;
45136;SDS011;30894;51.740;19.498;2023-07-20T13:57:03;0.77;;;0.50;;
45136;SDS011;30894;51.740;19.498;2023-07-20T13:59:30;1.05;;;0.73;;
45136;SDS011;30894;51.740;19.498;2023-07-20T14:01:57;1.15;;;0.70;;
45136;SDS011;30894;51.740;19.498;2023-07-20T14:04:23;0.52;;;0.52;;
45136;SDS011;30894;51.740;19.498;2023-07-20T14:06:49;0.70;;;0.70;;
45136;SDS011;30894;51.740;19.498;2023-07-20T14:09:16;0.60;;;0.60;;
45136;SDS011;30894;51.740;19.498;2023-07-20T14:11:43;0.40;;;0.40;;
45136;SDS011;30894;51.740;19.498;2023-07-20T14:14:09;1.30;;;0.65;;
45136;SDS011;30894;51.740;19.498;2023-07-20T14:16:36;0.68;;;0.60;;
45136;SDS011;30894;51.740;19.498;2023-07-20T14:19:02;2.50;;;0.63;;
45136;SDS011;30894;51.740;19.498;2023-07-20T14:21:30;1.30;;;0.50;;
45136;SDS011;30894;51.740;19.498;2023-07-20T14:23:56;0.60;;;0.60;;
45136;SDS011;30894;51.740;19.498;2023-07-20T14:26:23;0.63;;;0.63;;
45136;SDS011;30894;51.740;19.498;2023-07-20T14:28:49;0.70;;;0.70;;
45136;SDS011;30894;51.740;19.498;2023-07-20T14:31:16;0.55;;;0.55;;
45136;SDS011;30894;51.740;19.498;2023-07-20T14:33:42;1.30;;;0.70;;
45136;SDS011;30894;51.740;19.498;2023-07-20T14:36:08;0.77;;;0.57;;
45136;SDS011;30894;51.740;19.498;2023-07-20T14:38:34;1.95;;;0.57;;
45136;SDS011;30894;51.740;19.498;2023-07-20T14:41:01;2.72;;;0.82;;
45136;SDS011;30894;51.740;19.498;2023-07-20T14:43:28;2.45;;;0.68;;
45136;SDS011;30894;51.740;19.498;2023-07-20T14:45:55;0.50;;;0.50;;
45136;SDS011;30894;51.740;19.498;2023-07-20T14:48:21;1.08;;;0.55;;
45136;SDS011;30894;51.740;19.498;2023-07-20T14:50:47;0.70;;;0.50;;
45136;SDS011;30894;51.740;19.498;2023-07-20T14:53:14;0.82;;;0.60;;
45136;SDS011;30894;51.740;19.498;2023-07-20T14:55:41;0.65;;;0.65;;
45136;SDS011;30894;51.740;19.498;2023-07-20T14:58:07;0.75;;;0.75;;
45136;SDS011;30894;51.740;19.498;2023-07-20T15:00:34;0.88;;;0.60;;
45136;SDS011;30894;51.740;19.498;2023-07-20T15:03:00;0.60;;;0.60;;
45136;SDS011;30894;51.740;19.498;2023-07-20T15:05:26;0.52;;;0.50;;
45136;SDS011;30894;51.740;19.498;2023-07-20T15:07:52;0.60;;;0.60;;
45136;SDS011;30894;51.740;19.498;2023-07-20T15:10:19;0.90;;;0.55;;
45136;SDS011;30894;51.740;19.498;2023-07-20T15:12:46;1.15;;;0.68;;